Time;durP1;ratioP1;P1;durP2;ratioP2;P2;SDS_P1;SDS_P2;PMS_P1;PMS_P2;Temp;Humidity;BMP_temperature;BMP_pressure;BME280_temperature;BME280_humidity;BME280_pressure;Samples;Min_cycle;Max_cycle;Signal;HPM_P1;HPM_P2
2022/04/23 00:01:06;;;;;;;8.50;4.35;;;;;;;12.37;100.00;100834.50;5109797;28;20048;-28
2022/04/23 00:03:35;;;;;;;7.05;4.10;;;;;;;12.35;100.00;100825.56;5112824;28;20322;-27
2022/04/23 00:06:02;;;;;;;9.93;4.60;;;;;;;12.31;100.00;100839.34;5110047;28;20042;-28
2022/04/23 00:08:30;;;;;;;9.15;4.85;;;;;;;12.28;100.00;100833.53;5111108;28;20046;-27
2022/04/23 00:11:00;;;;;;;6.93;4.40;;;;;;;12.24;100.00;100830.53;5111106;28;20054;-30
2022/04/23 00:13:28;;;;;;;8.15;4.03;;;;;;;12.22;100.00;100831.97;5110395;28;20039;-30
2022/04/23 00:15:55;;;;;;;8.85;4.45;;;;;;;12.18;100.00;100826.22;5110893;28;20485;-27
2022/04/23 00:18:23;;;;;;;7.03;4.00;;;;;;;12.15;100.00;100828.78;5107405;28;20047;-28
2022/04/23 00:20:51;;;;;;;7.82;4.40;;;;;;;12.11;100.00;100822.16;5110863;28;20047;-27
2022/04/23 00:23:19;;;;;;;9.35;4.90;;;;;;;12.08;100.00;100820.81;5112727;28;20048;-29
2022/04/23 00:25:50;;;;;;;8.00;4.72;;;;;;;12.02;100.00;100822.88;5112108;28;20047;-30
2022/04/23 00:28:20;;;;;;;8.60;3.80;;;;;;;11.99;100.00;100822.69;5112934;28;20070;-26
2022/04/23 00:30:47;;;;;;;6.82;4.13;;;;;;;11.94;100.00;100820.81;5111688;28;20040;-29
2022/04/23 00:33:15;;;;;;;8.60;4.57;;;;;;;11.87;100.00;100822.34;5112001;28;20105;-28
2022/04/23 00:35:44;;;;;;;8.98;4.18;;;;;;;11.85;100.00;100821.81;5112501;28;20131;-28
2022/04/23 00:38:11;;;;;;;9.30;4.45;;;;;;;11.79;100.00;100826.66;5112805;28;20081;-29
2022/04/23 00:40:40;;;;;;;7.82;4.70;;;;;;;11.77;100.00;100825.34;5111527;27;20438;-31
2022/04/23 00:43:12;;;;;;;7.28;4.25;;;;;;;11.75;100.00;100822.81;5112642;28;20043;-31
2022/04/23 00:45:41;;;;;;;8.73;4.63;;;;;;;11.71;100.00;100821.78;5112451;28;20051;-27
2022/04/23 00:48:09;;;;;;;8.05;4.40;;;;;;;11.67;100.00;100826.31;5098632;28;20050;-33
2022/04/23 00:50:37;;;;;;;10.45;5.10;;;;;;;11.65;100.00;100825.78;5112236;28;20043;-30
2022/04/23 00:53:05;;;;;;;8.82;5.07;;;;;;;11.63;100.00;100828.06;5112483;28;20047;-28
2022/04/23 00:55:34;;;;;;;9.18;5.05;;;;;;;11.60;100.00;100817.50;5100557;28;20040;-28
2022/04/23 00:58:02;;;;;;;8.02;4.63;;;;;;;11.58;100.00;100812.22;5112092;28;20496;-29
2022/04/23 01:00:30;;;;;;;9.10;5.25;;;;;;;11.56;100.00;100819.25;5112157;28;20055;-28
2022/04/23 01:03:00;;;;;;;6.88;4.63;;;;;;;11.54;100.00;100815.94;5111011;28;20054;-27
2022/04/23 01:05:28;;;;;;;7.07;5.28;;;;;;;11.52;100.00;100812.63;5108989;28;20493;-27
2022/04/23 01:07:56;;;;;;;9.60;5.95;;;;;;;11.50;100.00;100814.88;5111311;28;20131;-29
2022/04/23 01:10:24;;;;;;;9.10;5.82;;;;;;;11.48;100.00;100814.38;5111215;28;20044;-28
2022/04/23 01:12:53;;;;;;;8.50;5.60;;;;;;;11.46;100.00;100816.63;5112047;28;20158;-26
2022/04/23 01:15:22;;;;;;;10.73;6.45;;;;;;;11.46;100.00;100819.44;5111146;28;20075;-27
2022/04/23 01:17:49;;;;;;;10.35;6.40;;;;;;;11.44;100.00;100805.75;5112330;28;20644;-27
2022/04/23 01:20:19;;;;;;;9.50;5.97;;;;;;;11.46;100.00;100819.44;5111899;28;20363;-28
2022/04/23 01:22:47;;;;;;;10.32;6.05;;;;;;;11.43;100.00;100814.44;5104143;28;20051;-27
2022/04/23 01:25:15;;;;;;;9.38;6.03;;;;;;;11.42;100.00;100821.16;5111557;28;20493;-28
2022/04/23 01:27:46;;;;;;;8.10;5.97;;;;;;;11.39;100.00;100819.81;5111378;28;20055;-27
2022/04/23 01:30:14;;;;;;;9.47;5.57;;;;;;;11.36;100.00;100820.44;5110864;28;20082;-29
2022/04/23 01:32:42;;;;;;;10.63;6.45;;;;;;;11.33;100.00;100821.88;5111640;28;20044;-27
2022/04/23 01:35:10;;;;;;;7.82;5.22;;;;;;;11.30;100.00;100828.06;5111553;28;20063;-28
2022/04/23 01:37:39;;;;;;;9.90;6.03;;;;;;;11.29;100.00;100815.25;5110721;28;20058;-26
2022/04/23 01:40:08;;;;;;;8.15;6.05;;;;;;;11.26;100.00;100821.44;5111176;28;20054;-29
2022/04/23 01:42:36;;;;;;;8.23;5.05;;;;;;;11.24;100.00;100831.25;5110730;28;20048;-30
2022/04/23 01:45:04;;;;;;;8.63;5.35;;;;;;;11.22;100.00;100827.94;5110963;28;20040;-32
2022/04/23 01:47:32;;;;;;;7.40;4.78;;;;;;;11.19;100.00;100825.78;5111642;28;20054;-30
2022/04/23 01:50:00;;;;;;;6.93;4.60;;;;;;;11.15;100.00;100828.34;5110414;28;20439;-27
2022/04/23 01:52:27;;;;;;;7.68;5.20;;;;;;;11.12;100.00;100834.53;5111396;28;20078;-26
2022/04/23 01:54:57;;;;;;;13.30;6.88;;;;;;;11.09;100.00;100829.53;5111525;28;20054;-29
2022/04/23 01:57:24;;;;;;;9.57;6.70;;;;;;;11.05;100.00;100834.91;5110816;28;20054;-27
2022/04/23 01:59:52;;;;;;;10.05;6.97;;;;;;;11.02;100.00;100827.13;5111290;28;20050;-29
2022/04/23 02:02:21;;;;;;;9.52;7.53;;;;;;;11.00;100.00;100834.13;5111423;28;20059;-26
2022/04/23 02:04:49;;;;;;;13.25;7.55;;;;;;;10.99;100.00;100832.50;5110488;28;20471;-26
2022/04/23 02:07:16;;;;;;;12.15;7.60;;;;;;;10.97;100.00;100830.00;5111236;28;20138;-27
2022/04/23 02:09:44;;;;;;;10.00;7.00;;;;;;;10.98;100.00;100830.84;5111329;28;20496;-28
2022/04/23 02:12:13;;;;;;;10.27;7.03;;;;;;;10.95;100.00;100831.44;5110550;28;20138;-26
2022/04/23 02:14:41;;;;;;;13.68;8.50;;;;;;;10.93;100.00;100820.56;5111526;28;20531;-28
2022/04/23 02:17:09;;;;;;;10.00;7.30;;;;;;;10.90;100.00;100825.94;5110992;28;20138;-27
2022/04/23 02:19:37;;;;;;;9.27;6.50;;;;;;;10.87;100.00;100816.19;5110281;28;20135;-27
2022/04/23 02:22:05;;;;;;;10.05;6.53;;;;;;;10.85;100.00;100815.66;5111915;28;20378;-29
2022/04/23 02:24:33;;;;;;;8.20;6.10;;;;;;;10.83;100.00;100817.09;5113841;28;20053;-26
2022/04/23 02:27:01;;;;;;;9.52;6.78;;;;;;;10.80;100.00;100812.09;5114292;28;20054;-28
2022/04/23 02:29:30;;;;;;;10.75;7.85;;;;;;;10.79;100.00;100816.06;5115392;28;20051;-30
2022/04/23 02:31:58;;;;;;;12.73;8.70;;;;;;;10.76;100.00;100817.50;5114948;28;20063;-26
2022/04/23 02:34:26;;;;;;;11.68;8.25;;;;;;;10.77;100.00;100818.31;5114087;27;20048;-29
2022/04/23 02:36:53;;;;;;;11.18;8.20;;;;;;;10.74;100.00;100824.50;5115092;28;20062;-32
2022/04/23 02:39:21;;;;;;;12.98;8.32;;;;;;;10.73;100.00;100820.88;5114171;27;20043;-31
2022/04/23 02:41:49;;;;;;;13.10;8.93;;;;;;;10.72;100.00;100821.19;5114523;28;20052;-27
2022/04/23 02:44:17;;;;;;;10.75;8.77;;;;;;;10.72;100.00;100823.97;5114979;28;20091;-31
2022/04/23 02:46:46;;;;;;;11.50;8.38;;;;;;;10.71;100.00;100828.72;5113868;28;20096;-27
2022/04/23 02:49:14;;;;;;;11.52;8.35;;;;;;;10.67;100.00;100820.13;5114711;28;20078;-27
2022/04/23 02:51:42;;;;;;;13.38;9.63;;;;;;;10.69;100.00;100828.19;5114588;27;20496;-27
2022/04/23 02:54:09;;;;;;;11.63;8.73;;;;;;;10.67;100.00;100824.88;5114001;28;20054;-28
2022/04/23 02:56:38;;;;;;;12.10;9.48;;;;;;;10.65;100.00;100827.13;5114413;28;20052;-26
2022/04/23 02:59:06;;;;;;;14.07;9.45;;;;;;;10.63;100.00;100818.22;5113942;28;20074;-30
2022/04/23 03:01:36;;;;;;;14.63;9.00;;;;;;;10.61;100.00;100814.91;5113482;28;20066;-27
2022/04/23 03:04:08;;;;;;;11.82;9.60;;;;;;;10.60;100.00;100813.22;5114632;28;20050;-27
2022/04/23 03:06:36;;;;;;;15.10;9.35;;;;;;;10.57;100.00;100822.22;5114628;28;20147;-26
2022/04/23 03:09:04;;;;;;;12.68;9.05;;;;;;;10.55;100.00;100821.69;5111450;28;20039;-28
2022/04/23 03:11:32;;;;;;;13.48;10.23;;;;;;;10.54;100.00;100820.03;5114232;28;20040;-26
2022/04/23 03:14:00;;;;;;;11.55;9.68;;;;;;;10.51;100.00;100829.84;5114039;28;20039;-28
2022/04/23 03:16:28;;;;;;;15.45;9.95;;;;;;;10.50;100.00;100822.59;5113541;28;20048;-28
2022/04/23 03:18:57;;;;;;;11.77;8.85;;;;;;;10.49;100.00;100818.13;5114448;28;20138;-28
2022/04/23 03:21:27;;;;;;;14.98;10.27;;;;;;;10.48;100.00;100812.84;5113425;28;20591;-29
2022/04/23 03:23:54;;;;;;;11.57;9.05;;;;;;;10.48;100.00;100816.47;5114163;28;20050;-35
2022/04/23 03:26:22;;;;;;;13.23;9.38;;;;;;;10.46;100.00;100817.91;5113834;28;20469;-27
2022/04/23 03:28:50;;;;;;;11.88;8.52;;;;;;;10.44;100.00;100818.19;5113293;28;20139;-27
2022/04/23 03:31:18;;;;;;;11.77;8.77;;;;;;;10.44;100.00;100820.16;5113738;28;20501;-29
2022/04/23 03:33:46;;;;;;;10.80;8.35;;;;;;;10.42;100.00;100812.09;5113298;28;20406;-29
2022/04/23 03:36:13;;;;;;;13.38;9.85;;;;;;;10.40;100.00;100808.75;5113090;28;20496;-28
2022/04/23 03:38:43;;;;;;;11.68;9.30;;;;;;;10.41;100.00;100824.38;5113572;28;20401;-27
2022/04/23 03:41:11;;;;;;;11.98;9.02;;;;;;;10.39;100.00;100817.47;5114000;28;20082;-28
2022/04/23 03:43:38;;;;;;;11.13;8.77;;;;;;;10.36;100.00;100816.09;5112784;28;20044;-27
2022/04/23 03:46:06;;;;;;;11.65;9.05;;;;;;;10.35;100.00;100817.22;5113798;28;20036;-28
2022/04/23 03:48:34;;;;;;;11.63;8.70;;;;;;;10.32;100.00;100815.84;5113488;28;20522;-28
2022/04/23 03:51:02;;;;;;;10.82;8.23;;;;;;;10.31;100.00;100816.97;5112659;28;20047;-27
2022/04/23 03:53:29;;;;;;;12.88;8.88;;;;;;;10.29;100.00;100819.25;5113081;28;20055;-28
2022/04/23 03:55:58;;;;;;;12.25;9.27;;;;;;;10.29;100.00;100815.63;5112432;28;20559;-31
2022/04/23 03:58:28;;;;;;;10.07;8.27;;;;;;;10.28;100.00;100817.56;5111322;28;20416;-27
2022/04/23 04:00:56;;;;;;;10.45;8.50;;;;;;;10.28;100.00;100817.56;5113392;28;20047;-28
2022/04/23 04:03:24;;;;;;;11.40;8.93;;;;;;;10.26;100.00;100825.41;5113291;28;20054;-28
2022/04/23 04:05:52;;;;;;;13.18;9.38;;;;;;;10.24;100.00;100816.50;5112266;28;20199;-28
2022/04/23 04:08:20;;;;;;;12.63;9.23;;;;;;;10.24;100.00;100819.28;5113080;28;20032;-28
2022/04/23 04:10:47;;;;;;;13.55;9.35;;;;;;;10.22;100.00;100824.34;5112337;28;20047;-28
2022/04/23 04:13:17;;;;;;;12.75;9.50;;;;;;;10.20;100.00;100829.38;5113231;28;20044;-28
2022/04/23 04:15:44;;;;;;;11.50;8.27;;;;;;;10.19;100.00;100822.13;5112919;28;20047;-28
2022/04/23 04:18:13;;;;;;;12.65;8.88;;;;;;;10.15;100.00;100823.84;5111958;28;20556;-29
2022/04/23 04:20:41;;;;;;;12.20;9.02;;;;;;;10.15;100.00;100825.81;5112576;28;20047;-29
2022/04/23 04:23:09;;;;;;;11.85;8.43;;;;;;;10.13;100.00;100830.84;5111571;28;20054;-29
2022/04/23 04:25:37;;;;;;;15.38;9.80;;;;;;;10.09;100.00;100827.81;5112094;28;20040;-27
2022/04/23 04:28:05;;;;;;;11.95;8.73;;;;;;;10.09;100.00;100827.00;5112635;28;20043;-26
2022/04/23 04:33:16;;;;;;;13.80;9.68;;;;;;;10.03;100.00;100818.69;5111657;28;20086;-31
2022/04/23 04:35:44;;;;;;;12.13;8.88;;;;;;;10.03;100.00;100824.25;5112576;28;20047;-33
2022/04/23 04:38:12;;;;;;;13.48;9.40;;;;;;;10.03;100.00;100810.31;5111443;28;20050;-27
2022/04/23 04:40:40;;;;;;;13.88;9.52;;;;;;;10.02;100.00;100818.97;5111467;28;20062;-30
2022/04/23 04:43:08;;;;;;;13.55;9.15;;;;;;;10.02;100.00;100819.81;5101385;28;20492;-30
2022/04/23 04:45:37;;;;;;;13.70;9.88;;;;;;;10.03;100.00;100827.03;5111314;28;20048;-28
2022/04/23 04:48:05;;;;;;;12.75;8.73;;;;;;;10.03;100.00;100826.22;5111949;28;20135;-27
2022/04/23 04:50:33;;;;;;;12.15;9.40;;;;;;;10.02;100.00;100825.38;5112141;28;20040;-28
2022/04/23 04:53:01;;;;;;;12.77;9.32;;;;;;;10.03;100.00;100831.78;5108117;28;20039;-28
2022/04/23 04:55:29;;;;;;;10.73;8.60;;;;;;;10.02;100.00;100828.16;5111019;28;20407;-27
2022/04/23 04:57:56;;;;;;;12.63;9.77;;;;;;;10.02;100.00;100830.13;5112108;28;20454;-27
2022/04/23 05:00:24;;;;;;;13.35;9.82;;;;;;;10.02;100.00;100838.50;5111552;28;20051;-29
2022/04/23 05:02:59;;;;;;;12.18;8.93;;;;;;;10.03;100.00;100835.41;5112089;28;20044;-27
2022/04/23 05:05:27;;;;;;;13.40;10.05;;;;;;;10.02;100.00;100841.28;5111997;28;20047;-28
2022/04/23 05:07:55;;;;;;;13.52;9.45;;;;;;;10.05;100.00;100840.69;5101671;28;20048;-30
2022/04/23 05:10:23;;;;;;;10.60;8.25;;;;;;;10.07;100.00;100832.03;5110172;28;20415;-27
2022/04/23 05:12:50;;;;;;;15.57;10.20;;;;;;;10.07;100.00;100832.88;5111318;28;20039;-29
2022/04/23 05:15:18;;;;;;;11.63;8.40;;;;;;;10.09;100.00;100836.19;5110157;28;20051;-27
2022/04/23 05:17:46;;;;;;;12.50;9.48;;;;;;;10.11;100.00;100833.09;5111107;28;20043;-28
2022/04/23 05:20:16;;;;;;;13.00;9.88;;;;;;;10.13;100.00;100837.25;5110635;28;20124;-27
2022/04/23 05:22:43;;;;;;;11.70;9.15;;;;;;;10.15;100.00;100840.59;5110112;28;20134;-27
2022/04/23 05:25:11;;;;;;;13.25;9.90;;;;;;;10.18;100.00;100839.16;5108357;28;20473;-28
2022/04/23 05:27:39;;;;;;;13.02;9.90;;;;;;;10.19;100.00;100843.66;5107932;28;20051;-27
2022/04/23 05:30:08;;;;;;;12.80;9.82;;;;;;;10.23;100.00;100834.38;5109852;28;20047;-27
2022/04/23 05:32:38;;;;;;;12.27;10.05;;;;;;;10.26;100.00;100844.09;5110606;28;20382;-27
2022/04/23 05:35:11;;;;;;;11.07;9.18;;;;;;;10.29;100.00;100835.97;5110225;28;20051;-29
2022/04/23 05:37:41;;;;;;;12.85;9.73;;;;;;;10.32;100.00;100848.50;5110502;28;20508;-30
2022/04/23 05:40:09;;;;;;;12.27;9.65;;;;;;;10.36;100.00;100835.63;5110731;28;20039;-28
2022/04/23 05:42:37;;;;;;;10.93;9.20;;;;;;;10.41;100.00;100843.06;5110020;28;20051;-27
2022/04/23 05:45:06;;;;;;;11.15;9.00;;;;;;;10.45;100.00;100839.38;5110194;28;20051;-27
2022/04/23 05:47:34;;;;;;;13.32;9.75;;;;;;;10.49;100.00;100850.78;5110766;28;20059;-28
2022/04/23 05:50:03;;;;;;;12.93;9.80;;;;;;;10.52;100.00;100839.88;5109781;28;20058;-30
2022/04/23 05:52:31;;;;;;;10.75;8.65;;;;;;;10.57;100.00;100848.19;5110507;28;20519;-28
2022/04/23 05:55:00;;;;;;;10.05;8.27;;;;;;;10.62;100.00;100845.28;5110523;28;20071;-28
2022/04/23 05:57:28;;;;;;;10.20;9.10;;;;;;;10.64;100.00;100848.63;5112729;28;20507;-28
2022/04/23 05:59:56;;;;;;;12.45;9.77;;;;;;;10.67;100.00;100838.81;5114484;28;20043;-29
2022/04/23 06:02:24;;;;;;;10.02;8.05;;;;;;;10.73;100.00;100845.16;5112890;28;20419;-27
2022/04/23 06:04:52;;;;;;;9.63;8.52;;;;;;;10.77;100.00;100840.66;5113704;28;20047;-27
2022/04/23 06:07:20;;;;;;;11.90;9.15;;;;;;;10.80;100.00;100840.03;5114532;28;20167;-28
2022/04/23 06:09:47;;;;;;;11.68;8.88;;;;;;;10.85;100.00;100840.78;5114611;28;20039;-27
2022/04/23 06:12:16;;;;;;;11.32;8.18;;;;;;;10.92;100.00;100840.41;5113525;28;20055;-28
2022/04/23 06:14:44;;;;;;;11.63;8.70;;;;;;;10.97;100.00;100845.94;5114885;28;20059;-29
2022/04/23 06:17:13;;;;;;;10.73;8.65;;;;;;;11.02;100.00;100845.84;5114085;28;20055;-29
2022/04/23 06:19:41;;;;;;;10.68;8.55;;;;;;;11.04;100.00;100838.00;5114259;28;20043;-27
2022/04/23 06:22:09;;;;;;;9.93;8.20;;;;;;;11.09;100.00;100848.25;5114500;28;20418;-28
2022/04/23 06:24:37;;;;;;;10.25;7.57;;;;;;;11.14;100.00;100854.59;5113164;28;20059;-27
2022/04/23 06:27:05;;;;;;;11.65;8.57;;;;;;;11.21;100.00;100849.44;5112281;28;20446;-32
2022/04/23 06:29:40;;;;;;;11.85;7.85;;;;;;;11.29;100.00;100845.97;5113168;28;20105;-30
2022/04/23 06:32:09;;;;;;;13.07;8.77;;;;;;;11.44;100.00;100847.66;5113028;27;20043;-30
2022/04/23 06:34:37;;;;;;;9.57;8.40;;;;;;;11.64;100.00;100846.50;5114153;28;20083;-28
2022/04/23 06:37:06;;;;;;;9.70;8.20;;;;;;;11.88;100.00;100852.78;5113917;28;20048;-27
2022/04/23 06:39:34;;;;;;;11.15;8.75;;;;;;;12.15;100.00;100848.38;5112771;28;20047;-28
2022/04/23 06:42:02;;;;;;;10.73;7.88;;;;;;;12.36;100.00;100855.22;5113202;28;20420;-29
2022/04/23 06:44:29;;;;;;;11.80;7.93;;;;;;;12.55;100.00;100857.91;5111849;28;20101;-28
2022/04/23 06:46:59;;;;;;;9.82;7.75;;;;;;;12.86;100.00;100855.25;5112681;28;20424;-28
2022/04/23 06:49:27;;;;;;;9.98;7.57;;;;;;;13.20;100.00;100854.75;5113132;28;20040;-29
2022/04/23 06:51:55;;;;;;;10.55;8.15;;;;;;;13.54;98.96;100857.00;5113235;28;20400;-29
2022/04/23 06:54:24;;;;;;;8.68;6.63;;;;;;;13.80;96.14;100855.19;5112753;28;20169;-30
2022/04/23 06:56:53;;;;;;;10.02;7.72;;;;;;;13.94;92.22;100849.50;5113372;28;20055;-29
2022/04/23 06:59:20;;;;;;;9.20;7.32;;;;;;;14.07;90.79;100843.78;5113620;28;20423;-27
2022/04/23 07:01:48;;;;;;;10.02;7.20;;;;;;;14.33;91.13;100843.91;5112475;28;20048;-29
2022/04/23 07:04:17;;;;;;;9.27;7.25;;;;;;;14.65;87.18;100842.69;5113376;28;20047;-29
2022/04/23 07:06:45;;;;;;;8.88;7.25;;;;;;;14.81;85.12;100846.69;5111901;28;20051;-28
2022/04/23 07:09:13;;;;;;;10.07;7.38;;;;;;;14.94;83.45;100839.28;5112197;28;20070;-28
2022/04/23 07:11:41;;;;;;;9.18;7.82;;;;;;;15.11;82.72;100842.09;5113100;28;20500;-28
2022/04/23 07:14:09;;;;;;;10.57;7.20;;;;;;;15.05;80.40;100843.41;5112260;28;20051;-28
2022/04/23 07:16:37;;;;;;;9.30;7.68;;;;;;;14.99;80.50;100838.28;5113311;28;20040;-27
2022/04/23 07:19:07;;;;;;;8.70;6.30;;;;;;;15.03;79.98;100839.28;5113138;28;20082;-29
2022/04/23 07:21:36;;;;;;;9.32;6.53;;;;;;;15.14;80.08;100826.56;5110823;28;20060;-29
2022/04/23 07:24:05;;;;;;;8.48;7.30;;;;;;;15.12;78.67;100828.88;5113584;28;20048;-29
2022/04/23 07:26:35;;;;;;;11.77;7.95;;;;;;;14.94;77.47;100827.22;5111547;28;20046;-29
2022/04/23 07:29:06;;;;;;;9.60;7.15;;;;;;;14.73;78.26;100818.59;5112197;28;20096;-27
2022/04/23 07:31:35;;;;;;;8.30;6.83;;;;;;;14.49;78.49;100827.47;5113387;28;20078;-28
2022/04/23 07:39:36;;;;;;;9.82;7.00;;;;;;;14.49;80.81;100813.41;5113806;28;20146;-27
2022/04/23 07:42:06;;;;;;;9.68;7.43;;;;;;;14.80;78.68;100814.13;5113137;27;20078;-28
2022/04/23 07:44:34;;;;;;;11.75;8.27;;;;;;;15.23;77.43;100802.06;5113697;28;20071;-29
2022/04/23 07:47:04;;;;;;;13.80;7.40;;;;;;;15.66;75.16;100795.56;5113626;28;20044;-28
2022/04/23 07:49:32;;;;;;;9.48;8.10;;;;;;;16.11;72.16;100805.19;5113380;28;20048;-30
2022/04/23 07:52:01;;;;;;;12.63;7.07;;;;;;;16.34;70.55;100804.94;5113560;28;20122;-28
2022/04/23 07:54:29;;;;;;;10.07;7.63;;;;;;;16.63;68.72;100799.31;5113818;28;20071;-27
2022/04/23 07:56:57;;;;;;;9.75;7.65;;;;;;;16.76;66.20;100800.22;5112870;27;20131;-30
2022/04/23 07:59:25;;;;;;;9.77;7.55;;;;;;;16.83;66.04;100789.22;5113356;28;20043;-32
2022/04/23 08:01:52;;;;;;;9.77;7.40;;;;;;;16.91;65.30;100799.59;5113611;28;20071;-30
2022/04/23 08:04:20;;;;;;;9.98;7.38;;;;;;;17.04;65.14;100792.03;5112493;28;20043;-29
2022/04/23 08:06:48;;;;;;;9.32;7.65;;;;;;;17.27;63.50;100792.50;5113580;28;20051;-31
2022/04/23 08:09:17;;;;;;;9.00;7.80;;;;;;;17.39;62.05;100789.72;5112774;28;20100;-29
2022/04/23 08:11:45;;;;;;;10.57;7.38;;;;;;;17.57;61.94;100774.28;5112136;28;20060;-27
2022/04/23 08:14:12;;;;;;;11.25;8.20;;;;;;;17.76;60.01;100788.72;5110871;28;20055;-29
2022/04/23 08:16:41;;;;;;;12.20;8.13;;;;;;;17.91;60.03;100784.38;5110513;28;20047;-31
2022/04/23 08:19:09;;;;;;;11.18;7.43;;;;;;;18.02;59.50;100777.09;5111139;28;20101;-33
2022/04/23 08:21:37;;;;;;;11.57;7.72;;;;;;;18.09;58.61;100776.50;5112483;28;20047;-29
2022/04/23 08:24:05;;;;;;;11.30;8.05;;;;;;;18.27;58.34;100777.09;5111743;28;20044;-32
2022/04/23 08:26:34;;;;;;;12.75;8.10;;;;;;;18.07;57.94;100781.69;5112780;28;20051;-29
2022/04/23 08:31:47;;;;;;;13.57;7.95;;;;;;;18.51;57.06;100788.41;5111976;28;20075;-29
2022/04/23 08:34:15;;;;;;;9.27;7.60;;;;;;;18.67;56.46;100780.88;5112470;28;20062;-32
2022/04/23 08:36:43;;;;;;;14.00;8.57;;;;;;;18.76;54.44;100783.56;5112472;28;20040;-33
2022/04/23 08:39:11;;;;;;;9.45;7.78;;;;;;;18.81;54.39;100775.66;5111855;28;20040;-28
2022/04/23 08:41:41;;;;;;;11.70;7.50;;;;;;;18.81;53.84;100772.81;5112215;27;20054;-31
2022/04/23 08:44:08;;;;;;;11.68;7.60;;;;;;;18.66;53.78;100776.41;5112539;28;20046;-27
2022/04/23 08:46:39;;;;;;;10.05;7.95;;;;;;;18.55;54.17;100773.22;5111755;28;20063;-29
2022/04/23 08:49:09;;;;;;;13.52;7.82;;;;;;;18.55;53.50;100775.22;5112439;28;20047;-28
2022/04/23 08:51:38;;;;;;;12.23;7.90;;;;;;;18.62;54.15;100771.81;5112212;28;20046;-29
2022/04/23 08:54:08;;;;;;;11.27;7.85;;;;;;;18.90;52.08;100782.00;5111582;28;20043;-30
2022/04/23 08:56:37;;;;;;;10.50;8.15;;;;;;;18.85;51.65;100776.59;5101706;28;20519;-30
2022/04/23 08:59:08;;;;;;;18.40;9.27;;;;;;;18.88;52.03;100792.84;5111539;28;20036;-29
2022/04/23 09:01:36;;;;;;;8.57;7.68;;;;;;;18.98;52.26;100779.41;5112106;28;20051;-29
2022/04/23 09:04:06;;;;;;;9.20;7.55;;;;;;;19.22;50.54;100787.78;5111853;28;20087;-27
2022/04/23 09:06:35;;;;;;;9.77;7.85;;;;;;;19.13;50.18;100782.28;5111593;28;20431;-31
2022/04/23 09:09:08;;;;;;;11.70;8.13;;;;;;;19.21;49.98;100789.78;5112051;28;20089;-28
2022/04/23 09:11:36;;;;;;;8.88;7.30;;;;;;;19.17;50.35;100788.06;5108450;28;20043;-28
2022/04/23 09:14:04;;;;;;;12.77;7.05;;;;;;;19.34;49.61;100776.44;5111096;28;20057;-28
2022/04/23 09:25:07;;;;;;;12.57;6.82;;;;;;;19.89;46.68;100769.06;5110525;28;20047;-28
2022/04/23 09:27:35;;;;;;;12.57;7.90;;;;;;;20.02;45.99;100775.47;5110934;28;20062;-36
2022/04/23 09:30:05;;;;;;;10.75;7.88;;;;;;;20.12;45.31;100772.91;5108292;28;20081;-28
2022/04/23 09:32:36;;;;;;;10.73;8.02;;;;;;;20.26;44.93;100773.25;5111203;28;20405;-28
2022/04/23 09:35:05;;;;;;;13.25;7.85;;;;;;;20.44;43.92;100778.56;5109432;28;20465;-30
2022/04/23 09:40:19;;;;;;;11.10;8.65;;;;;;;20.55;43.11;100772.00;5109919;28;20047;-29
2022/04/23 09:42:56;;;;;;;10.15;7.82;;;;;;;20.59;43.46;100766.38;5111174;28;20492;-29
2022/04/23 09:45:26;;;;;;;10.82;7.97;;;;;;;20.67;43.29;100768.19;5110259;28;20050;-29
2022/04/23 09:47:56;;;;;;;14.20;8.00;;;;;;;20.66;43.39;100760.88;5111559;28;20075;-28
2022/04/23 09:50:24;;;;;;;10.73;7.95;;;;;;;20.60;43.07;100768.84;5110681;28;20047;-28
2022/04/23 09:52:53;;;;;;;10.38;7.07;;;;;;;20.62;43.87;100774.16;5111544;28;20220;-29
2022/04/23 09:55:25;;;;;;;10.75;7.97;;;;;;;20.72;43.31;100758.59;5110679;28;20052;-30
2022/04/23 09:57:54;;;;;;;11.45;8.48;;;;;;;20.78;43.25;100760.78;5111283;28;20048;-29
2022/04/23 10:00:22;;;;;;;12.68;8.13;;;;;;;20.88;42.70;100756.53;5111030;28;20389;-29
2022/04/23 10:02:56;;;;;;;11.57;8.15;;;;;;;21.02;42.14;100759.66;5110661;28;20063;-27
2022/04/23 10:05:27;;;;;;;10.98;7.28;;;;;;;21.02;42.01;100756.81;5110203;28;20050;-33
2022/04/23 10:07:58;;;;;;;11.43;8.98;;;;;;;21.13;42.12;100759.91;5111182;28;20143;-28
2022/04/23 10:10:30;;;;;;;12.63;7.93;;;;;;;20.97;41.49;100752.28;5110497;28;20055;-29
2022/04/23 10:13:01;;;;;;;15.98;7.78;;;;;;;20.81;41.71;100768.50;5111090;28;20047;-30
2022/04/23 10:15:29;;;;;;;9.43;6.65;;;;;;;20.90;42.31;100752.13;5111139;28;20052;-30
2022/04/23 10:17:59;;;;;;;12.63;7.55;;;;;;;21.13;41.21;100757.06;5110390;28;20043;-34
2022/04/23 10:20:30;;;;;;;10.32;6.35;;;;;;;20.93;41.83;100757.06;5111323;28;20385;-34
2022/04/23 10:23:04;;;;;;;11.02;7.80;;;;;;;21.11;40.82;100759.44;5111441;28;20054;-35
2022/04/23 10:25:45;;;;;;;10.23;6.95;;;;;;;21.34;40.10;100754.69;5110573;28;20066;-35
2022/04/23 10:28:14;;;;;;;9.43;7.07;;;;;;;;;;5111235;28;20401;-30
2022/04/23 10:30:42;;;;;;;14.45;7.68;;;;;;;21.33;39.79;100753.06;5110284;28;20058;-29
2022/04/23 10:33:27;;;;;;;11.05;7.00;;;;;;;21.25;38.11;100762.59;5110195;28;20093;-30
2022/04/23 10:36:09;;;;;;;11.55;6.75;;;;;;;21.16;38.22;100757.16;5110765;28;20548;-29
2022/04/23 10:38:41;;;;;;;8.38;7.30;;;;;;;21.13;39.72;100751.38;5109794;28;20052;-31
2022/04/23 10:41:12;;;;;;;10.13;7.18;;;;;;;21.07;40.04;100752.88;5110878;28;20058;-30
2022/04/23 10:43:50;;;;;;;10.13;6.25;;;;;;;21.12;39.88;100755.41;5113633;28;20040;-29
2022/04/23 10:46:45;;;;;;;10.00;6.97;;;;;;;21.29;39.24;100752.16;5112795;28;20456;-29
2022/04/23 10:49:14;;;;;;;10.30;6.50;;;;;;;21.23;40.14;100747.97;5110903;28;20142;-29
2022/04/23 10:51:48;;;;;;;8.43;6.68;;;;;;;21.48;39.24;100743.63;5106438;28;20060;-28
2022/04/23 10:54:18;;;;;;;8.70;7.18;;;;;;;21.67;39.50;100745.59;5112759;28;20036;-34
2022/04/23 10:56:51;;;;;;;9.23;7.07;;;;;;;21.87;39.10;100752.03;5114888;28;20047;-28
2022/04/23 10:59:33;;;;;;;10.90;7.43;;;;;;;21.80;37.45;100744.19;5113050;28;20067;-25
2022/04/23 11:02:06;;;;;;;7.38;6.10;;;;;;;21.63;37.83;100751.19;5105041;28;20043;-30
2022/04/23 11:12:14;;;;;;;10.25;7.47;;;;;;;21.48;39.28;100746.47;5112677;28;20048;-27
2022/04/23 11:13:23;;;;;;;9.73;7.43;;;;;;;21.71;38.57;100734.31;5089072;28;20503;-29
2022/04/23 11:16:13;;;;;;;7.38;6.38;;;;;;;21.64;38.17;100735.81;5111503;28;20040;-34
2022/04/23 11:18:43;;;;;;;8.30;7.10;;;;;;;21.55;39.32;100743.75;5110651;28;20130;-29
2022/04/23 11:21:14;;;;;;;8.32;6.47;;;;;;;21.56;39.72;100730.38;5112391;28;20051;-32
2022/04/23 11:23:45;;;;;;;9.55;7.88;;;;;;;21.57;39.29;100730.00;5112730;28;20428;-36
2022/04/23 11:26:13;;;;;;;7.75;6.80;;;;;;;21.65;39.25;100728.09;5113819;28;20497;-27
2022/04/23 11:28:42;;;;;;;7.90;7.10;;;;;;;21.71;39.14;100728.63;5112510;28;20116;-28
2022/04/23 11:31:12;;;;;;;9.93;7.40;;;;;;;21.61;39.21;100722.34;5114073;28;20035;-30
2022/04/23 11:33:53;;;;;;;7.75;6.95;;;;;;;21.57;39.01;100724.34;5113157;28;20138;-29
2022/04/23 11:36:25;;;;;;;8.67;6.57;;;;;;;21.55;39.57;100721.03;5113293;28;20047;-28
2022/04/23 11:38:55;;;;;;;13.93;7.72;;;;;;;21.53;39.43;100717.75;5113825;28;20515;-28
2022/04/23 11:41:27;;;;;;;10.50;7.15;;;;;;;21.51;38.92;100708.78;5112377;28;20083;-29
2022/04/23 11:43:55;;;;;;;10.88;7.40;;;;;;;21.62;39.33;100726.00;5113659;28;20463;-28
2022/04/23 11:46:23;;;;;;;10.02;7.00;;;;;;;21.75;38.90;100713.28;5113330;28;20096;-31
2022/04/23 11:48:51;;;;;;;11.43;8.13;;;;;;;21.84;38.51;100721.53;5112978;28;20055;-29
2022/04/23 11:51:21;;;;;;;10.05;7.60;;;;;;;21.59;38.04;100721.91;5111993;28;20051;-31